sensor_id;sensor_type;location;lat;lon;timestamp;temperature;humidity
16485;DHT22;8353;47.856;12.344;2023-02-01T00:00:27;6.80;99.90
16485;DHT22;8353;47.856;12.344;2023-02-01T00:02:57;6.80;99.90
16485;DHT22;8353;47.856;12.344;2023-02-01T00:05:27;6.80;99.90
16485;DHT22;8353;47.856;12.344;2023-02-01T00:07:58;6.80;99.90
16485;DHT22;8353;47.856;12.344;2023-02-01T00:10:30;6.80;99.90
16485;DHT22;8353;47.856;12.344;2023-02-01T00:13:00;6.80;99.90
16485;DHT22;8353;47.856;12.344;2023-02-01T00:15:31;6.80;99.90
16485;DHT22;8353;47.856;12.344;2023-02-01T00:18:03;6.70;99.90
16485;DHT22;8353;47.856;12.344;2023-02-01T00:20:33;6.70;99.90
16485;DHT22;8353;47.856;12.344;2023-02-01T00:23:04;6.80;99.90
16485;DHT22;8353;47.856;12.344;2023-02-01T00:25:38;6.80;99.90
16485;DHT22;8353;47.856;12.344;2023-02-01T00:28:09;6.80;99.90
16485;DHT22;8353;47.856;12.344;2023-02-01T00:30:41;6.80;99.90
16485;DHT22;8353;47.856;12.344;2023-02-01T00:33:12;6.80;99.90
16485;DHT22;8353;47.856;12.344;2023-02-01T00:35:42;6.80;99.90
16485;DHT22;8353;47.856;12.344;2023-02-01T00:38:13;6.80;99.90
16485;DHT22;8353;47.856;12.344;2023-02-01T00:40:45;6.80;99.90
16485;DHT22;8353;47.856;12.344;2023-02-01T00:43:16;6.70;99.90
16485;DHT22;8353;47.856;12.344;2023-02-01T00:45:47;6.60;99.90
16485;DHT22;8353;47.856;12.344;2023-02-01T00:48:17;6.60;99.90
16485;DHT22;8353;47.856;12.344;2023-02-01T00:50:47;6.60;99.90
16485;DHT22;8353;47.856;12.344;2023-02-01T00:53:18;6.60;99.90
16485;DHT22;8353;47.856;12.344;2023-02-01T00:55:49;6.60;99.90
16485;DHT22;8353;47.856;12.344;2023-02-01T00:58:20;6.60;99.90
16485;DHT22;8353;47.856;12.344;2023-02-01T01:01:01;6.60;99.90
16485;DHT22;8353;47.856;12.344;2023-02-01T01:03:34;6.70;99.90
16485;DHT22;8353;47.856;12.344;2023-02-01T01:06:06;6.60;99.90
16485;DHT22;8353;47.856;12.344;2023-02-01T01:08:38;6.50;99.90
16485;DHT22;8353;47.856;12.344;2023-02-01T01:11:12;6.50;99.90
16485;DHT22;8353;47.856;12.344;2023-02-01T01:13:45;6.50;99.90
16485;DHT22;8353;47.856;12.344;2023-02-01T01:16:17;6.50;99.90
16485;DHT22;8353;47.856;12.344;2023-02-01T01:18:47;6.40;99.90
16485;DHT22;8353;47.856;12.344;2023-02-01T01:21:18;6.40;99.90
16485;DHT22;8353;47.856;12.344;2023-02-01T01:23:49;6.40;99.90
16485;DHT22;8353;47.856;12.344;2023-02-01T01:26:22;6.40;99.90
16485;DHT22;8353;47.856;12.344;2023-02-01T01:28:54;6.40;99.90
16485;DHT22;8353;47.856;12.344;2023-02-01T01:31:24;6.30;99.90
16485;DHT22;8353;47.856;12.344;2023-02-01T01:33:57;6.40;99.90
16485;DHT22;8353;47.856;12.344;2023-02-01T01:36:28;6.30;99.90
16485;DHT22;8353;47.856;12.344;2023-02-01T01:38:59;6.40;99.90
16485;DHT22;8353;47.856;12.344;2023-02-01T01:41:32;6.30;99.90
16485;DHT22;8353;47.856;12.344;2023-02-01T01:44:04;6.30;99.90
16485;DHT22;8353;47.856;12.344;2023-02-01T01:46:37;6.40;99.90
16485;DHT22;8353;47.856;12.344;2023-02-01T01:49:11;6.40;99.90
16485;DHT22;8353;47.856;12.344;2023-02-01T01:51:44;6.40;99.90
16485;DHT22;8353;47.856;12.344;2023-02-01T01:54:21;6.40;99.90
16485;DHT22;8353;47.856;12.344;2023-02-01T01:56:58;6.30;99.90
16485;DHT22;8353;47.856;12.344;2023-02-01T01:59:31;6.40;99.90
16485;DHT22;8353;47.856;12.344;2023-02-01T02:02:02;6.50;99.90
16485;DHT22;8353;47.856;12.344;2023-02-01T02:04:34;6.50;99.90
16485;DHT22;8353;47.856;12.344;2023-02-01T02:07:09;6.60;99.90
16485;DHT22;8353;47.856;12.344;2023-02-01T02:09:41;6.50;99.90
16485;DHT22;8353;47.856;12.344;2023-02-01T02:12:14;6.60;99.90
16485;DHT22;8353;47.856;12.344;2023-02-01T02:14:45;6.40;99.90
16485;DHT22;8353;47.856;12.344;2023-02-01T02:17:30;6.40;99.90
16485;DHT22;8353;47.856;12.344;2023-02-01T02:20:39;6.40;99.90
16485;DHT22;8353;47.856;12.344;2023-02-01T02:33:27;6.10;99.90
16485;DHT22;8353;47.856;12.344;2023-02-01T02:36:08;6.20;99.90
16485;DHT22;8353;47.856;12.344;2023-02-01T02:38:46;6.30;99.90
16485;DHT22;8353;47.856;12.344;2023-02-01T02:41:20;6.30;99.90
16485;DHT22;8353;47.856;12.344;2023-02-01T02:44:16;6.30;99.90
16485;DHT22;8353;47.856;12.344;2023-02-01T02:47:13;6.20;99.90
16485;DHT22;8353;47.856;12.344;2023-02-01T02:50:05;6.20;99.90
16485;DHT22;8353;47.856;12.344;2023-02-01T02:52:59;6.20;99.90
16485;DHT22;8353;47.856;12.344;2023-02-01T02:55:50;6.20;99.90
16485;DHT22;8353;47.856;12.344;2023-02-01T02:58:22;6.20;99.90
16485;DHT22;8353;47.856;12.344;2023-02-01T03:01:10;6.20;99.90
16485;DHT22;8353;47.856;12.344;2023-02-01T03:04:14;6.20;99.90
16485;DHT22;8353;47.856;12.344;2023-02-01T03:06:48;6.30;99.90
16485;DHT22;8353;47.856;12.344;2023-02-01T03:09:23;6.30;99.90
16485;DHT22;8353;47.856;12.344;2023-02-01T03:12:00;6.30;99.90
16485;DHT22;8353;47.856;12.344;2023-02-01T03:14:52;6.20;99.90
16485;DHT22;8353;47.856;12.344;2023-02-01T03:17:29;6.10;99.90
16485;DHT22;8353;47.856;12.344;2023-02-01T03:20:06;6.20;99.90
16485;DHT22;8353;47.856;12.344;2023-02-01T03:22:40;6.20;99.90
16485;DHT22;8353;47.856;12.344;2023-02-01T03:25:14;6.20;99.90
16485;DHT22;8353;47.856;12.344;2023-02-01T03:27:50;6.30;99.90
16485;DHT22;8353;47.856;12.344;2023-02-01T03:30:24;6.20;99.90
16485;DHT22;8353;47.856;12.344;2023-02-01T03:32:57;6.00;99.90
16485;DHT22;8353;47.856;12.344;2023-02-01T03:35:30;5.80;99.90
16485;DHT22;8353;47.856;12.344;2023-02-01T03:38:08;5.70;99.90
16485;DHT22;8353;47.856;12.344;2023-02-01T03:40:43;5.70;99.90
16485;DHT22;8353;47.856;12.344;2023-02-01T03:43:17;5.70;99.90
16485;DHT22;8353;47.856;12.344;2023-02-01T03:45:54;5.70;99.90
16485;DHT22;8353;47.856;12.344;2023-02-01T03:48:27;5.80;99.90
16485;DHT22;8353;47.856;12.344;2023-02-01T03:51:03;5.80;99.90
16485;DHT22;8353;47.856;12.344;2023-02-01T03:53:36;5.80;99.90
16485;DHT22;8353;47.856;12.344;2023-02-01T03:56:09;5.90;99.90
16485;DHT22;8353;47.856;12.344;2023-02-01T03:58:40;5.90;99.90
16485;DHT22;8353;47.856;12.344;2023-02-01T04:01:28;5.80;99.90
16485;DHT22;8353;47.856;12.344;2023-02-01T04:03:59;5.80;99.90
16485;DHT22;8353;47.856;12.344;2023-02-01T04:06:29;5.90;99.90
16485;DHT22;8353;47.856;12.344;2023-02-01T04:09:03;5.90;99.90
16485;DHT22;8353;47.856;12.344;2023-02-01T04:11:34;5.70;99.90
16485;DHT22;8353;47.856;12.344;2023-02-01T04:14:04;5.80;99.90
16485;DHT22;8353;47.856;12.344;2023-02-01T04:16:35;5.80;99.90
16485;DHT22;8353;47.856;12.344;2023-02-01T04:19:05;5.80;99.90
16485;DHT22;8353;47.856;12.344;2023-02-01T04:21:35;5.70;99.90
16485;DHT22;8353;47.856;12.344;2023-02-01T04:24:08;5.80;99.90
16485;DHT22;8353;47.856;12.344;2023-02-01T04:26:39;5.70;99.90
16485;DHT22;8353;47.856;12.344;2023-02-01T04:29:10;5.60;99.90
16485;DHT22;8353;47.856;12.344;2023-02-01T04:31:40;5.60;99.90
16485;DHT22;8353;47.856;12.344;2023-02-01T04:34:11;5.70;99.90
16485;DHT22;8353;47.856;12.344;2023-02-01T04:36:41;5.80;99.90
16485;DHT22;8353;47.856;12.344;2023-02-01T04:39:14;5.70;99.90
16485;DHT22;8353;47.856;12.344;2023-02-01T04:41:44;5.80;99.90
16485;DHT22;8353;47.856;12.344;2023-02-01T04:44:16;5.70;99.90
16485;DHT22;8353;47.856;12.344;2023-02-01T04:46:47;5.80;99.90
16485;DHT22;8353;47.856;12.344;2023-02-01T04:49:17;5.80;99.90
16485;DHT22;8353;47.856;12.344;2023-02-01T04:51:47;5.90;99.90
16485;DHT22;8353;47.856;12.344;2023-02-01T04:54:19;5.80;99.90
16485;DHT22;8353;47.856;12.344;2023-02-01T04:56:50;5.80;99.90
16485;DHT22;8353;47.856;12.344;2023-02-01T04:59:21;5.80;99.90
16485;DHT22;8353;47.856;12.344;2023-02-01T05:01:51;5.90;99.90
16485;DHT22;8353;47.856;12.344;2023-02-01T05:04:21;5.90;99.90
16485;DHT22;8353;47.856;12.344;2023-02-01T05:06:51;5.90;99.90
16485;DHT22;8353;47.856;12.344;2023-02-01T05:09:23;5.90;99.90
16485;DHT22;8353;47.856;12.344;2023-02-01T05:11:54;6.00;99.90
16485;DHT22;8353;47.856;12.344;2023-02-01T05:14:42;6.00;99.90
16485;DHT22;8353;47.856;12.344;2023-02-01T05:17:13;6.00;99.90
16485;DHT22;8353;47.856;12.344;2023-02-01T05:19:43;6.00;99.90
16485;DHT22;8353;47.856;12.344;2023-02-01T05:22:13;6.00;99.90
16485;DHT22;8353;47.856;12.344;2023-02-01T05:24:45;6.00;99.90
16485;DHT22;8353;47.856;12.344;2023-02-01T05:27:15;6.00;99.90
16485;DHT22;8353;47.856;12.344;2023-02-01T05:29:46;6.00;99.90
16485;DHT22;8353;47.856;12.344;2023-02-01T05:32:16;6.00;99.90
16485;DHT22;8353;47.856;12.344;2023-02-01T05:34:46;6.00;99.90
16485;DHT22;8353;47.856;12.344;2023-02-01T05:37:17;6.00;99.90
16485;DHT22;8353;47.856;12.344;2023-02-01T05:39:49;6.00;99.90
16485;DHT22;8353;47.856;12.344;2023-02-01T05:42:20;6.10;99.90
16485;DHT22;8353;47.856;12.344;2023-02-01T05:44:50;6.00;99.90
16485;DHT22;8353;47.856;12.344;2023-02-01T05:47:21;6.00;99.90
16485;DHT22;8353;47.856;12.344;2023-02-01T05:49:52;6.00;99.90
16485;DHT22;8353;47.856;12.344;2023-02-01T05:52:22;6.00;99.90
16485;DHT22;8353;47.856;12.344;2023-02-01T05:54:54;6.10;99.90
16485;DHT22;8353;47.856;12.344;2023-02-01T05:57:25;6.10;99.90
16485;DHT22;8353;47.856;12.344;2023-02-01T05:59:56;6.10;99.90
16485;DHT22;8353;47.856;12.344;2023-02-01T06:02:26;6.00;99.90
16485;DHT22;8353;47.856;12.344;2023-02-01T06:04:57;6.00;99.90
16485;DHT22;8353;47.856;12.344;2023-02-01T06:07:27;6.00;99.90
16485;DHT22;8353;47.856;12.344;2023-02-01T06:09:59;6.00;99.90
16485;DHT22;8353;47.856;12.344;2023-02-01T06:12:29;6.00;99.90
16485;DHT22;8353;47.856;12.344;2023-02-01T06:15:00;6.00;99.90
16485;DHT22;8353;47.856;12.344;2023-02-01T06:17:30;6.10;99.90
16485;DHT22;8353;47.856;12.344;2023-02-01T06:20:01;6.10;99.90
16485;DHT22;8353;47.856;12.344;2023-02-01T06:22:32;6.10;99.90
16485;DHT22;8353;47.856;12.344;2023-02-01T06:25:08;6.10;99.90
16485;DHT22;8353;47.856;12.344;2023-02-01T06:27:39;6.10;99.90
16485;DHT22;8353;47.856;12.344;2023-02-01T06:30:10;6.30;99.90
16485;DHT22;8353;47.856;12.344;2023-02-01T06:32:43;6.20;99.90
16485;DHT22;8353;47.856;12.344;2023-02-01T06:35:13;6.20;99.90
16485;DHT22;8353;47.856;12.344;2023-02-01T06:37:45;6.20;99.90
16485;DHT22;8353;47.856;12.344;2023-02-01T06:40:18;6.20;99.90
16485;DHT22;8353;47.856;12.344;2023-02-01T06:42:49;6.30;99.90
16485;DHT22;8353;47.856;12.344;2023-02-01T06:45:19;6.20;99.90
16485;DHT22;8353;47.856;12.344;2023-02-01T06:47:49;6.30;99.90
16485;DHT22;8353;47.856;12.344;2023-02-01T06:50:20;6.30;99.90
16485;DHT22;8353;47.856;12.344;2023-02-01T06:52:53;6.30;99.90
16485;DHT22;8353;47.856;12.344;2023-02-01T06:55:25;6.30;99.90
16485;DHT22;8353;47.856;12.344;2023-02-01T06:57:56;6.30;99.90
16485;DHT22;8353;47.856;12.344;2023-02-01T07:00:26;6.30;99.90
16485;DHT22;8353;47.856;12.344;2023-02-01T07:02:57;6.30;99.90
16485;DHT22;8353;47.856;12.344;2023-02-01T07:05:29;6.30;99.90
16485;DHT22;8353;47.856;12.344;2023-02-01T07:07:59;6.30;99.90
16485;DHT22;8353;47.856;12.344;2023-02-01T07:10:31;6.30;99.90
16485;DHT22;8353;47.856;12.344;2023-02-01T07:13:01;6.40;99.90
16485;DHT22;8353;47.856;12.344;2023-02-01T07:15:32;6.40;99.90
16485;DHT22;8353;47.856;12.344;2023-02-01T07:18:02;6.40;99.90
16485;DHT22;8353;47.856;12.344;2023-02-01T07:20:33;6.40;99.90
16485;DHT22;8353;47.856;12.344;2023-02-01T07:23:03;6.40;99.90
16485;DHT22;8353;47.856;12.344;2023-02-01T07:25:35;6.40;99.90
16485;DHT22;8353;47.856;12.344;2023-02-01T07:28:06;6.40;99.90
16485;DHT22;8353;47.856;12.344;2023-02-01T07:30:36;6.50;99.90
16485;DHT22;8353;47.856;12.344;2023-02-01T07:33:07;6.40;99.90
16485;DHT22;8353;47.856;12.344;2023-02-01T07:35:38;6.40;99.90
16485;DHT22;8353;47.856;12.344;2023-02-01T07:38:08;6.50;99.90
16485;DHT22;8353;47.856;12.344;2023-02-01T07:40:41;6.40;99.90
16485;DHT22;8353;47.856;12.344;2023-02-01T07:43:12;6.40;99.90
16485;DHT22;8353;47.856;12.344;2023-02-01T07:45:49;6.50;99.90
16485;DHT22;8353;47.856;12.344;2023-02-01T07:48:20;6.50;99.90
16485;DHT22;8353;47.856;12.344;2023-02-01T07:50:57;6.50;99.90
16485;DHT22;8353;47.856;12.344;2023-02-01T07:53:29;6.50;99.90
16485;DHT22;8353;47.856;12.344;2023-02-01T07:56:02;6.50;99.90
16485;DHT22;8353;47.856;12.344;2023-02-01T07:58:33;6.50;99.90
16485;DHT22;8353;47.856;12.344;2023-02-01T08:01:04;6.50;99.90
16485;DHT22;8353;47.856;12.344;2023-02-01T08:03:53;6.50;99.90
16485;DHT22;8353;47.856;12.344;2023-02-01T08:06:24;6.50;99.90
16485;DHT22;8353;47.856;12.344;2023-02-01T08:08:55;6.40;99.90
16485;DHT22;8353;47.856;12.344;2023-02-01T08:11:27;6.50;99.90
16485;DHT22;8353;47.856;12.344;2023-02-01T08:13:58;6.50;99.90
16485;DHT22;8353;47.856;12.344;2023-02-01T08:16:28;6.50;99.90
16485;DHT22;8353;47.856;12.344;2023-02-01T08:18:59;6.50;99.90
16485;DHT22;8353;47.856;12.344;2023-02-01T08:21:30;6.50;99.90
16485;DHT22;8353;47.856;12.344;2023-02-01T08:24:06;6.50;99.90
16485;DHT22;8353;47.856;12.344;2023-02-01T08:26:40;6.50;99.90
16485;DHT22;8353;47.856;12.344;2023-02-01T08:29:10;6.50;99.90
16485;DHT22;8353;47.856;12.344;2023-02-01T08:31:41;6.50;99.90
16485;DHT22;8353;47.856;12.344;2023-02-01T08:34:12;6.50;99.90
16485;DHT22;8353;47.856;12.344;2023-02-01T08:36:42;6.50;99.90
16485;DHT22;8353;47.856;12.344;2023-02-01T08:39:13;6.50;99.90
16485;DHT22;8353;47.856;12.344;2023-02-01T08:41:45;6.50;99.90
16485;DHT22;8353;47.856;12.344;2023-02-01T08:44:37;6.60;99.90
16485;DHT22;8353;47.856;12.344;2023-02-01T08:47:08;6.60;99.90
16485;DHT22;8353;47.856;12.344;2023-02-01T08:49:40;6.60;99.90
16485;DHT22;8353;47.856;12.344;2023-02-01T08:52:10;6.60;99.90
16485;DHT22;8353;47.856;12.344;2023-02-01T08:54:40;6.60;99.90
16485;DHT22;8353;47.856;12.344;2023-02-01T08:57:12;6.60;99.90
16485;DHT22;8353;47.856;12.344;2023-02-01T08:59:42;6.60;99.90
16485;DHT22;8353;47.856;12.344;2023-02-01T09:02:14;6.70;99.90
16485;DHT22;8353;47.856;12.344;2023-02-01T09:04:44;6.70;99.90
16485;DHT22;8353;47.856;12.344;2023-02-01T09:07:15;6.70;99.90
16485;DHT22;8353;47.856;12.344;2023-02-01T09:09:47;6.80;99.90
16485;DHT22;8353;47.856;12.344;2023-02-01T09:12:18;6.80;99.90
16485;DHT22;8353;47.856;12.344;2023-02-01T09:14:49;6.80;99.90
16485;DHT22;8353;47.856;12.344;2023-02-01T09:17:19;6.80;99.90
16485;DHT22;8353;47.856;12.344;2023-02-01T09:19:50;6.80;99.90
16485;DHT22;8353;47.856;12.344;2023-02-01T09:22:21;6.90;99.90
16485;DHT22;8353;47.856;12.344;2023-02-01T09:24:52;6.80;99.90
16485;DHT22;8353;47.856;12.344;2023-02-01T09:27:23;6.80;99.90
16485;DHT22;8353;47.856;12.344;2023-02-01T09:29:53;6.90;99.90
16485;DHT22;8353;47.856;12.344;2023-02-01T09:32:24;6.90;99.90
16485;DHT22;8353;47.856;12.344;2023-02-01T09:34:54;6.90;99.90
16485;DHT22;8353;47.856;12.344;2023-02-01T09:37:26;7.00;99.90
16485;DHT22;8353;47.856;12.344;2023-02-01T09:39:56;7.00;99.90
16485;DHT22;8353;47.856;12.344;2023-02-01T09:42:55;7.00;99.90
16485;DHT22;8353;47.856;12.344;2023-02-01T09:45:37;7.00;99.90
16485;DHT22;8353;47.856;12.344;2023-02-01T09:48:15;7.00;99.90
16485;DHT22;8353;47.856;12.344;2023-02-01T09:50:50;7.00;99.90
16485;DHT22;8353;47.856;12.344;2023-02-01T09:53:25;7.00;99.90
16485;DHT22;8353;47.856;12.344;2023-02-01T09:56:02;7.00;99.90
16485;DHT22;8353;47.856;12.344;2023-02-01T09:58:38;7.10;99.90
16485;DHT22;8353;47.856;12.344;2023-02-01T10:01:16;7.00;99.90
16485;DHT22;8353;47.856;12.344;2023-02-01T10:03:48;7.10;99.90
16485;DHT22;8353;47.856;12.344;2023-02-01T10:06:30;7.10;99.90
16485;DHT22;8353;47.856;12.344;2023-02-01T10:09:13;7.10;99.90
16485;DHT22;8353;47.856;12.344;2023-02-01T10:11:57;7.20;99.90
16485;DHT22;8353;47.856;12.344;2023-02-01T10:14:45;7.20;99.90
16485;DHT22;8353;47.856;12.344;2023-02-01T10:17:25;7.30;99.90
16485;DHT22;8353;47.856;12.344;2023-02-01T10:20:06;7.20;99.90
16485;DHT22;8353;47.856;12.344;2023-02-01T10:22:44;7.30;99.90
16485;DHT22;8353;47.856;12.344;2023-02-01T10:25:23;7.40;99.90
16485;DHT22;8353;47.856;12.344;2023-02-01T10:27:55;7.40;99.90
16485;DHT22;8353;47.856;12.344;2023-02-01T10:30:31;7.40;99.90
16485;DHT22;8353;47.856;12.344;2023-02-01T10:33:14;7.50;99.90
16485;DHT22;8353;47.856;12.344;2023-02-01T10:35:46;7.50;99.90
16485;DHT22;8353;47.856;12.344;2023-02-01T10:38:20;7.60;99.90
16485;DHT22;8353;47.856;12.344;2023-02-01T10:40:56;7.60;99.90
16485;DHT22;8353;47.856;12.344;2023-02-01T10:43:27;7.70;99.90
16485;DHT22;8353;47.856;12.344;2023-02-01T10:46:00;7.70;99.90
16485;DHT22;8353;47.856;12.344;2023-02-01T10:48:31;7.80;99.90
16485;DHT22;8353;47.856;12.344;2023-02-01T10:51:06;7.80;99.90
16485;DHT22;8353;47.856;12.344;2023-02-01T10:53:43;7.80;99.90
16485;DHT22;8353;47.856;12.344;2023-02-01T10:56:21;7.70;99.90
16485;DHT22;8353;47.856;12.344;2023-02-01T10:59:00;7.70;99.90
16485;DHT22;8353;47.856;12.344;2023-02-01T11:01:36;7.70;99.90
16485;DHT22;8353;47.856;12.344;2023-02-01T11:04:10;7.80;99.90
16485;DHT22;8353;47.856;12.344;2023-02-01T11:06:43;7.80;99.90
16485;DHT22;8353;47.856;12.344;2023-02-01T11:09:19;7.80;99.90
16485;DHT22;8353;47.856;12.344;2023-02-01T11:11:56;7.80;99.90
16485;DHT22;8353;47.856;12.344;2023-02-01T11:14:35;7.80;99.90
16485;DHT22;8353;47.856;12.344;2023-02-01T11:17:26;7.90;99.90
16485;DHT22;8353;47.856;12.344;2023-02-01T11:19:59;7.80;99.90
16485;DHT22;8353;47.856;12.344;2023-02-01T11:22:30;7.90;99.90
16485;DHT22;8353;47.856;12.344;2023-02-01T11:25:08;7.90;99.90
16485;DHT22;8353;47.856;12.344;2023-02-01T11:27:39;8.00;99.90
16485;DHT22;8353;47.856;12.344;2023-02-01T11:30:16;8.00;99.90
16485;DHT22;8353;47.856;12.344;2023-02-01T11:32:49;8.00;99.90
16485;DHT22;8353;47.856;12.344;2023-02-01T11:35:22;8.10;99.90
16485;DHT22;8353;47.856;12.344;2023-02-01T11:37:57;8.10;99.90
16485;DHT22;8353;47.856;12.344;2023-02-01T11:40:35;8.20;99.90
16485;DHT22;8353;47.856;12.344;2023-02-01T11:43:11;8.20;99.90
16485;DHT22;8353;47.856;12.344;2023-02-01T11:45:54;8.40;99.90
16485;DHT22;8353;47.856;12.344;2023-02-01T11:48:27;8.40;99.90
16485;DHT22;8353;47.856;12.344;2023-02-01T11:51:15;8.40;99.90
16485;DHT22;8353;47.856;12.344;2023-02-01T11:54:11;8.30;99.90
16485;DHT22;8353;47.856;12.344;2023-02-01T11:56:52;8.20;99.90
16485;DHT22;8353;47.856;12.344;2023-02-01T11:59:38;8.20;99.90
16485;DHT22;8353;47.856;12.344;2023-02-01T12:02:33;8.10;99.90
16485;DHT22;8353;47.856;12.344;2023-02-01T12:05:27;8.10;99.90
16485;DHT22;8353;47.856;12.344;2023-02-01T12:08:31;8.10;99.90
16485;DHT22;8353;47.856;12.344;2023-02-01T12:11:19;8.20;99.90
16485;DHT22;8353;47.856;12.344;2023-02-01T12:14:01;8.10;99.90
16485;DHT22;8353;47.856;12.344;2023-02-01T12:16:40;8.00;99.90
16485;DHT22;8353;47.856;12.344;2023-02-01T12:19:30;7.90;99.90
16485;DHT22;8353;47.856;12.344;2023-02-01T12:22:18;7.80;99.90
16485;DHT22;8353;47.856;12.344;2023-02-01T12:25:11;7.80;99.90
16485;DHT22;8353;47.856;12.344;2023-02-01T12:34:07;7.80;99.90
16485;DHT22;8353;47.856;12.344;2023-02-01T12:36:46;7.80;99.90
16485;DHT22;8353;47.856;12.344;2023-02-01T12:39:24;7.90;99.90
16485;DHT22;8353;47.856;12.344;2023-02-01T12:42:02;7.90;99.90
16485;DHT22;8353;47.856;12.344;2023-02-01T12:44:40;7.80;99.90
16485;DHT22;8353;47.856;12.344;2023-02-01T12:47:18;7.70;99.90
16485;DHT22;8353;47.856;12.344;2023-02-01T12:49:57;7.80;99.90
16485;DHT22;8353;47.856;12.344;2023-02-01T12:52:34;7.70;99.90
16485;DHT22;8353;47.856;12.344;2023-02-01T12:55:15;7.70;99.90
16485;DHT22;8353;47.856;12.344;2023-02-01T12:57:49;7.60;99.90
16485;DHT22;8353;47.856;12.344;2023-02-01T13:00:29;7.70;99.90
16485;DHT22;8353;47.856;12.344;2023-02-01T13:03:09;7.80;99.90
16485;DHT22;8353;47.856;12.344;2023-02-01T13:05:48;7.80;99.90
16485;DHT22;8353;47.856;12.344;2023-02-01T13:08:23;7.70;99.90
16485;DHT22;8353;47.856;12.344;2023-02-01T13:11:01;7.60;99.90
16485;DHT22;8353;47.856;12.344;2023-02-01T13:13:44;7.60;99.90
16485;DHT22;8353;47.856;12.344;2023-02-01T13:16:18;7.60;99.90
16485;DHT22;8353;47.856;12.344;2023-02-01T13:18:59;7.50;99.90
16485;DHT22;8353;47.856;12.344;2023-02-01T13:21:33;7.50;99.90
16485;DHT22;8353;47.856;12.344;2023-02-01T13:24:04;7.50;99.90
16485;DHT22;8353;47.856;12.344;2023-02-01T13:26:36;7.60;99.90
16485;DHT22;8353;47.856;12.344;2023-02-01T13:29:09;7.70;99.90
16485;DHT22;8353;47.856;12.344;2023-02-01T13:32:01;7.60;99.90
16485;DHT22;8353;47.856;12.344;2023-02-01T13:34:54;7.60;99.90
16485;DHT22;8353;47.856;12.344;2023-02-01T13:37:39;7.50;99.90
16485;DHT22;8353;47.856;12.344;2023-02-01T13:40:30;7.50;99.90
16485;DHT22;8353;47.856;12.344;2023-02-01T13:43:11;7.50;99.90
16485;DHT22;8353;47.856;12.344;2023-02-01T13:45:46;7.70;99.90
16485;DHT22;8353;47.856;12.344;2023-02-01T13:48:23;7.60;99.90
16485;DHT22;8353;47.856;12.344;2023-02-01T13:50:57;7.60;99.90
16485;DHT22;8353;47.856;12.344;2023-02-01T13:53:30;7.60;99.90
16485;DHT22;8353;47.856;12.344;2023-02-01T13:56:02;7.60;99.90
16485;DHT22;8353;47.856;12.344;2023-02-01T13:58:38;7.50;99.90
16485;DHT22;8353;47.856;12.344;2023-02-01T14:01:42;7.60;99.90
16485;DHT22;8353;47.856;12.344;2023-02-01T14:04:45;7.50;99.90
16485;DHT22;8353;47.856;12.344;2023-02-01T14:07:21;7.60;99.90
16485;DHT22;8353;47.856;12.344;2023-02-01T14:09:53;7.60;99.90
16485;DHT22;8353;47.856;12.344;2023-02-01T14:12:47;7.60;99.90
16485;DHT22;8353;47.856;12.344;2023-02-01T14:15:25;7.60;99.90
16485;DHT22;8353;47.856;12.344;2023-02-01T14:17:56;7.50;99.90
16485;DHT22;8353;47.856;12.344;2023-02-01T14:20:45;7.60;99.90
16485;DHT22;8353;47.856;12.344;2023-02-01T14:23:23;7.50;99.90
16485;DHT22;8353;47.856;12.344;2023-02-01T14:26:13;7.60;99.90
16485;DHT22;8353;47.856;12.344;2023-02-01T14:29:03;7.60;99.90
16485;DHT22;8353;47.856;12.344;2023-02-01T14:31:44;7.60;99.90
16485;DHT22;8353;47.856;12.344;2023-02-01T14:34:22;7.60;99.90
16485;DHT22;8353;47.856;12.344;2023-02-01T14:36:58;7.60;99.90
16485;DHT22;8353;47.856;12.344;2023-02-01T14:39:33;7.60;99.90
16485;DHT22;8353;47.856;12.344;2023-02-01T14:42:19;7.60;99.90
16485;DHT22;8353;47.856;12.344;2023-02-01T14:44:51;7.60;99.90
16485;DHT22;8353;47.856;12.344;2023-02-01T14:47:33;7.60;99.90
16485;DHT22;8353;47.856;12.344;2023-02-01T14:50:12;7.60;99.90
16485;DHT22;8353;47.856;12.344;2023-02-01T14:52:46;7.50;99.90
16485;DHT22;8353;47.856;12.344;2023-02-01T14:55:21;7.50;99.90
16485;DHT22;8353;47.856;12.344;2023-02-01T14:57:57;7.50;99.90
16485;DHT22;8353;47.856;12.344;2023-02-01T15:00:30;7.50;99.90
16485;DHT22;8353;47.856;12.344;2023-02-01T15:03:21;7.60;99.90
16485;DHT22;8353;47.856;12.344;2023-02-01T15:05:58;7.60;99.90
16485;DHT22;8353;47.856;12.344;2023-02-01T15:08:32;7.60;99.90
16485;DHT22;8353;47.856;12.344;2023-02-01T15:11:07;7.50;99.90
16485;DHT22;8353;47.856;12.344;2023-02-01T15:13:38;7.50;99.90
16485;DHT22;8353;47.856;12.344;2023-02-01T15:16:11;7.50;99.90
16485;DHT22;8353;47.856;12.344;2023-02-01T15:18:42;7.50;99.90
16485;DHT22;8353;47.856;12.344;2023-02-01T15:21:16;7.50;99.90
16485;DHT22;8353;47.856;12.344;2023-02-01T15:23:47;7.60;99.90
16485;DHT22;8353;47.856;12.344;2023-02-01T15:26:28;7.50;99.90
16485;DHT22;8353;47.856;12.344;2023-02-01T15:28:58;7.40;99.90
16485;DHT22;8353;47.856;12.344;2023-02-01T15:31:34;7.40;99.90
16485;DHT22;8353;47.856;12.344;2023-02-01T15:34:06;7.40;99.90
16485;DHT22;8353;47.856;12.344;2023-02-01T15:36:37;7.40;99.90
16485;DHT22;8353;47.856;12.344;2023-02-01T15:39:17;7.40;99.90
16485;DHT22;8353;47.856;12.344;2023-02-01T15:41:51;7.40;99.90
16485;DHT22;8353;47.856;12.344;2023-02-01T15:44:30;7.50;99.90
16485;DHT22;8353;47.856;12.344;2023-02-01T15:47:07;7.50;99.90
16485;DHT22;8353;47.856;12.344;2023-02-01T15:49:41;7.40;99.90
16485;DHT22;8353;47.856;12.344;2023-02-01T15:52:21;7.40;99.90
16485;DHT22;8353;47.856;12.344;2023-02-01T15:54:54;7.40;99.90
16485;DHT22;8353;47.856;12.344;2023-02-01T15:57:27;7.40;99.90
16485;DHT22;8353;47.856;12.344;2023-02-01T16:00:04;7.40;99.90
16485;DHT22;8353;47.856;12.344;2023-02-01T16:02:37;7.40;99.90
16485;DHT22;8353;47.856;12.344;2023-02-01T16:05:31;7.50;99.90
16485;DHT22;8353;47.856;12.344;2023-02-01T16:08:06;7.50;99.90
16485;DHT22;8353;47.856;12.344;2023-02-01T16:10:41;7.50;99.90
16485;DHT22;8353;47.856;12.344;2023-02-01T16:13:12;7.50;99.90
16485;DHT22;8353;47.856;12.344;2023-02-01T16:15:43;7.40;99.90
16485;DHT22;8353;47.856;12.344;2023-02-01T16:18:14;7.40;99.90
16485;DHT22;8353;47.856;12.344;2023-02-01T16:20:47;7.40;99.90
16485;DHT22;8353;47.856;12.344;2023-02-01T16:23:18;7.30;99.90
16485;DHT22;8353;47.856;12.344;2023-02-01T16:25:51;7.20;99.90
16485;DHT22;8353;47.856;12.344;2023-02-01T16:28:21;7.20;99.90
16485;DHT22;8353;47.856;12.344;2023-02-01T16:30:53;7.30;99.90
16485;DHT22;8353;47.856;12.344;2023-02-01T16:33:24;7.30;99.90
16485;DHT22;8353;47.856;12.344;2023-02-01T16:35:57;7.30;99.90
16485;DHT22;8353;47.856;12.344;2023-02-01T16:38:32;7.30;99.90
16485;DHT22;8353;47.856;12.344;2023-02-01T16:41:04;7.40;99.90
16485;DHT22;8353;47.856;12.344;2023-02-01T16:43:37;7.40;99.90
16485;DHT22;8353;47.856;12.344;2023-02-01T16:46:13;7.30;99.90
16485;DHT22;8353;47.856;12.344;2023-02-01T16:48:48;7.20;99.90
16485;DHT22;8353;47.856;12.344;2023-02-01T16:51:25;7.20;99.90